Time;durP1;ratioP1;P1;durP2;ratioP2;P2;SDS_P1;SDS_P2;PMS_P1;PMS_P2;Temp;Humidity;BMP_temperature;BMP_pressure;BME280_temperature;BME280_humidity;BME280_pressure;Samples;Min_cycle;Max_cycle;Signal;HPM_P1;HPM_P2
2022/03/01 00:01:52;;;;;;;14.70;9.50;;;2.50;99.90;;;;;;5035157;28;20421;-72
2022/03/01 00:04:19;;;;;;;17.63;9.00;;;2.50;99.90;;;;;;5039682;28;20414;-71
2022/03/01 00:06:45;;;;;;;12.40;8.10;;;2.50;99.90;;;;;;5055095;28;20860;-72
2022/03/01 00:09:10;;;;;;;14.80;7.87;;;2.50;99.90;;;;;;5046185;28;20533;-68
2022/03/01 00:11:36;;;;;;;19.03;10.03;;;2.50;99.90;;;;;;5035078;28;20794;-71
2022/03/01 00:14:03;;;;;;;14.60;8.50;;;2.50;99.90;;;;;;5040754;28;20175;-71
2022/03/01 00:16:29;;;;;;;17.97;8.33;;;2.50;99.90;;;;;;5054475;28;20857;-74
2022/03/01 00:18:54;;;;;;;11.27;7.27;;;2.50;99.90;;;;;;5049209;28;20553;-63
2022/03/01 00:21:21;;;;;;;14.20;8.70;;;2.50;99.90;;;;;;5034798;28;20195;-71
2022/03/01 00:23:47;;;;;;;14.17;8.87;;;2.50;99.90;;;;;;5037621;28;20245;-67
2022/03/01 00:26:12;;;;;;;13.13;7.43;;;2.50;99.90;;;;;;5052975;28;20934;-72
2022/03/01 00:28:38;;;;;;;16.53;8.10;;;2.50;99.90;;;;;;5053861;28;20174;-69
2022/03/01 00:31:04;;;;;;;14.13;9.07;;;2.50;99.90;;;;;;5054366;28;20198;-66
2022/03/01 00:33:30;;;;;;;16.13;8.93;;;2.40;99.90;;;;;;5034560;28;20175;-69
2022/03/01 00:35:56;;;;;;;10.83;7.73;;;2.40;99.90;;;;;;5033049;28;20218;-66
2022/03/01 00:38:22;;;;;;;11.50;8.23;;;2.40;99.90;;;;;;5052483;28;20489;-70
2022/03/01 00:40:47;;;;;;;12.00;6.90;;;2.40;99.90;;;;;;5053700;28;20590;-65
2022/03/01 00:43:13;;;;;;;16.40;8.40;;;2.40;99.90;;;;;;5037502;28;20183;-64
2022/03/01 00:45:39;;;;;;;19.13;8.00;;;2.40;99.90;;;;;;5034566;28;20198;-67
2022/03/01 00:48:04;;;;;;;11.63;6.47;;;2.40;99.90;;;;;;5049007;28;20266;-68
2022/03/01 00:50:30;;;;;;;13.27;6.10;;;2.40;99.90;;;;;;5053225;28;20195;-75
2022/03/01 00:52:56;;;;;;;15.57;8.07;;;2.30;99.90;;;;;;5040273;28;20191;-68
2022/03/01 00:55:21;;;;;;;12.47;8.50;;;2.30;99.90;;;;;;5033041;28;20182;-66
2022/03/01 00:57:47;;;;;;;15.83;7.60;;;2.30;99.90;;;;;;5045403;28;20206;-72
2022/03/01 01:00:13;;;;;;;12.90;7.60;;;2.30;99.90;;;;;;5053156;28;20308;-71
2022/03/01 01:02:40;;;;;;;7.37;6.63;;;2.30;99.90;;;;;;5040953;28;20196;-72
2022/03/01 01:05:05;;;;;;;9.60;6.53;;;2.30;99.90;;;;;;5054084;28;20402;-64
2022/03/01 01:07:31;;;;;;;14.40;9.33;;;2.30;99.90;;;;;;5053111;28;20526;-64
2022/03/01 01:09:57;;;;;;;11.33;5.60;;;2.30;99.90;;;;;;5052886;28;20404;-71
2022/03/01 01:12:23;;;;;;;12.00;6.93;;;2.30;99.90;;;;;;5042130;28;20450;-71
2022/03/01 01:14:48;;;;;;;12.90;8.07;;;2.30;99.90;;;;;;5034118;28;20175;-64
2022/03/01 01:17:14;;;;;;;10.17;7.70;;;2.30;99.90;;;;;;5040491;28;20229;-66
2022/03/01 01:19:39;;;;;;;12.30;8.77;;;2.20;99.90;;;;;;5052918;28;20281;-65
2022/03/01 01:24:49;;;;;;;12.13;8.03;;;2.20;99.90;;;;;;5033698;28;20694;-71
2022/03/01 01:27:15;;;;;;;10.50;7.50;;;2.20;99.90;;;;;;5044499;28;20421;-71
2022/03/01 01:29:41;;;;;;;11.10;6.73;;;2.20;99.90;;;;;;5052332;28;20524;-76
2022/03/01 01:32:07;;;;;;;15.67;7.27;;;2.20;99.90;;;;;;5037264;28;20253;-72
2022/03/01 01:34:33;;;;;;;12.20;6.50;;;2.20;99.90;;;;;;5033465;28;20541;-71
2022/03/01 01:36:59;;;;;;;8.47;4.93;;;2.20;99.90;;;;;;5046193;28;20922;-65
2022/03/01 01:39:24;;;;;;;16.43;8.03;;;2.20;99.90;;;;;;5052521;28;20455;-63
2022/03/01 01:41:50;;;;;;;12.67;6.97;;;2.20;99.90;;;;;;5039598;28;20203;-71
2022/03/01 01:44:16;;;;;;;12.47;6.87;;;2.10;99.90;;;;;;5033453;28;20190;-71
2022/03/01 01:46:42;;;;;;;10.23;7.27;;;2.20;99.90;;;;;;5043792;28;20183;-64
2022/03/01 01:49:07;;;;;;;10.60;6.50;;;2.20;99.90;;;;;;5052039;28;20436;-65
2022/03/01 01:51:33;;;;;;;10.27;7.17;;;2.10;99.90;;;;;;5043494;28;20215;-64
2022/03/01 01:53:58;;;;;;;11.13;6.90;;;2.10;99.90;;;;;;5036400;28;20193;-63
2022/03/01 01:56:24;;;;;;;12.23;6.93;;;2.20;99.90;;;;;;5053184;28;20532;-71
2022/03/01 01:58:50;;;;;;;12.90;7.10;;;2.20;99.90;;;;;;5048982;28;20702;-73
2022/03/01 02:01:16;;;;;;;10.57;7.27;;;2.20;99.90;;;;;;5031736;28;20200;-73
2022/03/01 02:03:41;;;;;;;8.73;6.20;;;2.10;99.90;;;;;;5034260;28;20246;-72
2022/03/01 02:06:08;;;;;;;17.50;5.90;;;2.10;99.90;;;;;;5052027;28;20210;-68
2022/03/01 02:08:34;;;;;;;12.52;7.03;;;2.10;99.90;;;;;;5051543;28;20232;-73
2022/03/01 02:11:00;;;;;;;13.60;7.73;;;2.10;99.90;;;;;;5031978;28;20751;-67
2022/03/01 02:13:26;;;;;;;19.97;7.60;;;2.10;99.90;;;;;;5033055;28;20799;-74
2022/03/01 02:15:53;;;;;;;13.90;9.17;;;2.10;99.90;;;;;;5050807;28;20421;-68
2022/03/01 02:18:19;;;;;;;8.85;6.40;;;2.00;99.90;;;;;;5052594;28;20213;-66
2022/03/01 02:20:45;;;;;;;14.17;7.70;;;2.00;99.90;;;;;;5032321;28;20183;-66
2022/03/01 02:23:10;;;;;;;10.10;6.97;;;2.00;99.90;;;;;;5032988;28;20403;-70
2022/03/01 02:25:37;;;;;;;10.00;6.90;;;2.00;99.90;;;;;;5033082;28;20186;-64
2022/03/01 02:28:04;;;;;;;10.80;7.33;;;2.00;99.90;;;;;;5034185;28;20202;-73
2022/03/01 02:30:30;;;;;;;10.63;6.50;;;2.00;99.90;;;;;;5051805;28;20448;-64
2022/03/01 02:32:56;;;;;;;10.70;5.97;;;1.90;99.90;;;;;;5056799;28;20170;-74
2022/03/01 02:35:22;;;;;;;17.73;7.10;;;1.90;99.90;;;;;;5037387;28;20926;-74
2022/03/01 02:37:48;;;;;;;10.50;8.83;;;1.90;99.90;;;;;;5036911;28;20195;-66
2022/03/01 02:40:14;;;;;;;9.47;6.60;;;1.90;99.90;;;;;;5053115;28;20425;-66
2022/03/01 02:42:43;;;;;;;13.20;8.37;;;1.80;99.90;;;;;;5056573;28;20187;-66
2022/03/01 02:45:12;;;;;;;7.30;6.30;;;1.80;99.90;;;;;;5040092;28;20187;-72
2022/03/01 02:47:38;;;;;;;13.00;6.67;;;1.80;99.90;;;;;;5036185;28;20433;-73
2022/03/01 02:50:05;;;;;;;12.80;6.97;;;1.80;99.90;;;;;;5049393;28;20456;-74
2022/03/01 02:52:31;;;;;;;14.70;7.70;;;1.80;99.90;;;;;;5056592;28;20429;-73
2022/03/01 02:54:57;;;;;;;15.03;7.40;;;1.80;99.90;;;;;;5042739;28;20929;-74
2022/03/01 02:57:24;;;;;;;9.17;6.53;;;1.70;99.90;;;;;;5035050;28;20458;-65
2022/03/01 02:59:51;;;;;;;8.07;5.85;;;1.70;99.90;;;;;;5047446;28;20436;-66
2022/03/01 03:02:16;;;;;;;14.87;6.77;;;1.70;99.90;;;;;;5056302;28;20237;-73
2022/03/01 03:04:42;;;;;;;11.30;6.90;;;1.70;99.90;;;;;;5045679;28;20775;-67
2022/03/01 03:07:08;;;;;;;8.10;6.83;;;1.70;99.90;;;;;;5035806;28;20674;-67
2022/03/01 03:09:34;;;;;;;12.30;8.00;;;1.70;99.90;;;;;;5043870;28;20228;-65
2022/03/01 03:11:59;;;;;;;15.60;6.90;;;1.70;99.90;;;;;;5056127;28;20418;-66
2022/03/01 03:14:25;;;;;;;12.20;6.23;;;1.60;99.90;;;;;;5047766;28;20267;-74
2022/03/01 03:16:51;;;;;;;9.80;6.60;;;1.60;99.90;;;;;;5036176;28;20171;-66
2022/03/01 03:19:16;;;;;;;17.50;7.43;;;1.60;99.90;;;;;;5041342;28;20205;-67
2022/03/01 03:21:46;;;;;;;10.73;6.80;;;1.60;99.90;;;;;;5056000;28;20210;-66
2022/03/01 03:24:12;;;;;;;8.35;6.53;;;1.60;99.90;;;;;;5048914;28;20193;-65
2022/03/01 03:26:39;;;;;;;10.83;6.77;;;1.60;99.90;;;;;;5034967;28;20266;-65
2022/03/01 03:29:08;;;;;;;11.63;6.67;;;1.60;99.90;;;;;;5038130;28;20226;-66
2022/03/01 03:31:38;;;;;;;12.00;8.07;;;1.50;99.90;;;;;;5035639;28;20794;-65
2022/03/01 03:34:06;;;;;;;10.07;5.40;;;1.50;99.90;;;;;;5035971;28;20445;-71
2022/03/01 03:36:34;;;;;;;14.90;7.97;;;1.50;99.90;;;;;;5035865;28;20903;-69
2022/03/01 03:39:00;;;;;;;11.45;6.10;;;1.50;99.90;;;;;;5038614;28;20191;-66
2022/03/01 03:41:26;;;;;;;12.57;7.80;;;1.50;99.90;;;;;;5054894;28;20241;-74
2022/03/01 03:43:51;;;;;;;17.43;8.47;;;1.50;99.90;;;;;;5047613;28;20422;-69
2022/03/01 03:46:18;;;;;;;9.47;7.23;;;1.50;99.90;;;;;;5034380;28;20163;-74
2022/03/01 03:48:43;;;;;;;14.60;6.20;;;1.50;99.90;;;;;;5040349;28;20541;-68
2022/03/01 03:51:09;;;;;;;10.53;7.00;;;1.40;99.90;;;;;;5055430;28;20449;-73
2022/03/01 03:53:34;;;;;;;9.20;6.90;;;1.40;99.90;;;;;;5053581;28;20206;-66
2022/03/01 03:56:00;;;;;;;10.20;6.73;;;1.40;99.90;;;;;;5054978;28;20202;-74
2022/03/01 03:58:26;;;;;;;16.50;7.17;;;1.40;99.90;;;;;;5044761;28;20233;-66
2022/03/01 04:00:51;;;;;;;13.50;7.10;;;1.50;99.90;;;;;;5033386;28;20227;-66
2022/03/01 04:03:17;;;;;;;9.40;6.10;;;1.40;99.90;;;;;;5043240;28;20261;-67
2022/03/01 04:05:43;;;;;;;9.87;5.73;;;1.40;99.90;;;;;;5055205;28;20209;-67
2022/03/01 04:08:10;;;;;;;11.77;6.93;;;1.40;99.90;;;;;;5048534;28;20633;-66
2022/03/01 04:10:36;;;;;;;12.77;7.70;;;1.50;99.90;;;;;;5034142;28;20187;-66
2022/03/01 04:13:01;;;;;;;11.40;6.80;;;1.40;99.90;;;;;;5038552;28;20524;-72
2022/03/01 04:15:27;;;;;;;10.17;7.27;;;1.40;99.90;;;;;;5054614;28;20746;-72
2022/03/01 04:17:52;;;;;;;14.17;7.63;;;1.40;99.90;;;;;;5051612;28;20281;-70
2022/03/01 04:20:21;;;;;;;9.17;7.53;;;1.40;99.90;;;;;;5034218;28;20613;-74
2022/03/01 04:22:47;;;;;;;12.00;7.20;;;1.40;99.90;;;;;;5035827;28;20664;-66
2022/03/01 04:25:13;;;;;;;10.90;7.23;;;1.30;99.90;;;;;;5054812;28;20189;-67
2022/03/01 04:27:39;;;;;;;10.60;6.07;;;1.30;99.90;;;;;;5053512;28;20771;-74
2022/03/01 04:30:11;;;;;;;20.20;8.47;;;1.30;99.90;;;;;;5034052;28;20198;-73
2022/03/01 04:32:37;;;;;;;11.02;7.05;;;1.30;99.90;;;;;;5034037;28;20430;-67
2022/03/01 04:35:03;;;;;;;9.63;7.83;;;1.30;99.90;;;;;;5052965;28;20639;-73
2022/03/01 04:37:29;;;;;;;15.88;6.97;;;1.30;99.90;;;;;;5054422;28;20495;-73
2022/03/01 04:39:55;;;;;;;11.53;7.70;;;1.30;99.90;;;;;;5051822;28;20571;-67
2022/03/01 04:42:20;;;;;;;13.17;6.50;;;1.10;99.90;;;;;;5054217;28;20304;-73
2022/03/01 04:44:46;;;;;;;10.50;5.83;;;1.20;99.90;;;;;;5035192;28;20250;-66
2022/03/01 04:47:14;;;;;;;6.33;5.07;;;1.20;99.90;;;;;;5034598;28;20237;-69
2022/03/01 04:49:40;;;;;;;13.27;8.43;;;1.20;99.90;;;;;;5049944;28;20709;-66
2022/03/01 04:52:06;;;;;;;9.17;6.47;;;1.20;99.90;;;;;;5040117;28;20200;-73
2022/03/01 04:54:32;;;;;;;9.00;7.10;;;1.20;99.90;;;;;;5034484;28;20941;-67
2022/03/01 04:56:58;;;;;;;12.85;7.32;;;1.10;99.90;;;;;;5044645;28;20764;-74
2022/03/01 04:59:23;;;;;;;11.90;6.90;;;1.10;99.90;;;;;;5052879;28;20241;-66
2022/03/01 05:01:49;;;;;;;11.10;6.47;;;1.00;99.90;;;;;;5046440;28;20513;-73
2022/03/01 05:04:15;;;;;;;12.00;6.67;;;1.00;99.90;;;;;;5046384;28;20253;-65
2022/03/01 05:06:40;;;;;;;13.80;7.60;;;1.00;99.90;;;;;;5053797;28;20167;-66
2022/03/01 05:09:06;;;;;;;11.00;7.07;;;1.00;99.90;;;;;;5051986;28;20210;-66
2022/03/01 05:11:33;;;;;;;12.40;8.17;;;1.00;99.90;;;;;;5052583;28;20214;-66
2022/03/01 05:13:58;;;;;;;18.58;7.82;;;1.00;99.90;;;;;;5048683;28;20168;-66
2022/03/01 05:16:24;;;;;;;13.67;5.93;;;1.00;99.90;;;;;;5033947;28;20179;-72
2022/03/01 05:18:50;;;;;;;18.07;7.40;;;0.90;99.90;;;;;;5035448;28;20965;-66
2022/03/01 05:21:15;;;;;;;8.87;5.93;;;0.80;99.90;;;;;;5053455;28;20186;-67
2022/03/01 05:23:41;;;;;;;18.33;7.80;;;0.80;99.90;;;;;;5051806;28;20172;-73
2022/03/01 05:26:06;;;;;;;8.37;6.10;;;0.70;99.90;;;;;;5053106;28;20570;-72
2022/03/01 05:28:32;;;;;;;15.17;7.93;;;0.80;99.90;;;;;;5050361;28;20662;-72
2022/03/01 05:30:58;;;;;;;9.00;6.73;;;0.80;99.90;;;;;;5033491;28;20191;-66
2022/03/01 05:33:23;;;;;;;9.27;7.10;;;0.70;99.90;;;;;;5033401;28;20175;-72
2022/03/01 05:35:49;;;;;;;18.23;6.70;;;0.70;99.90;;;;;;5033488;28;20169;-74
2022/03/01 05:38:15;;;;;;;13.30;7.27;;;0.70;99.90;;;;;;5033153;28;20214;-65
2022/03/01 05:40:41;;;;;;;9.23;5.43;;;0.70;99.90;;;;;;5050142;28;20171;-67
2022/03/01 05:43:08;;;;;;;10.20;6.90;;;0.70;99.90;;;;;;5052883;28;20246;-68
2022/03/01 05:45:34;;;;;;;13.65;6.80;;;0.70;99.90;;;;;;5036346;28;20202;-74
2022/03/01 05:48:00;;;;;;;14.27;7.07;;;0.70;99.90;;;;;;5033203;28;20508;-73
2022/03/01 05:50:28;;;;;;;13.43;6.60;;;0.60;99.90;;;;;;5035550;28;20191;-68
2022/03/01 05:52:54;;;;;;;13.82;8.05;;;0.60;99.90;;;;;;5033320;28;20583;-66
2022/03/01 05:55:20;;;;;;;10.82;6.30;;;0.60;99.90;;;;;;5033186;28;20179;-66
2022/03/01 05:57:46;;;;;;;8.07;6.70;;;0.60;99.90;;;;;;5040050;28;20551;-65
2022/03/01 06:00:14;;;;;;;13.07;9.20;;;0.60;99.90;;;;;;5051604;28;20162;-73
2022/03/01 06:02:41;;;;;;;12.77;7.60;;;0.60;99.90;;;;;;5046438;28;20649;-65
2022/03/01 06:05:07;;;;;;;17.27;8.45;;;0.60;99.90;;;;;;5033087;28;20180;-74
2022/03/01 06:07:33;;;;;;;9.73;7.63;;;0.60;99.90;;;;;;5036672;28;20296;-65
2022/03/01 06:09:58;;;;;;;13.13;7.80;;;0.60;99.90;;;;;;5050780;28;20405;-74
2022/03/01 06:12:24;;;;;;;11.27;7.40;;;0.60;99.90;;;;;;5051158;28;20241;-74
2022/03/01 06:14:50;;;;;;;13.13;7.30;;;0.60;99.90;;;;;;5052830;28;20178;-67
2022/03/01 06:17:15;;;;;;;12.50;6.77;;;0.60;99.90;;;;;;5046831;28;20182;-67
2022/03/01 06:19:41;;;;;;;12.90;7.03;;;0.60;99.90;;;;;;5031457;28;20217;-74
2022/03/01 06:22:07;;;;;;;10.20;6.13;;;0.60;99.90;;;;;;5035236;28;20187;-74
2022/03/01 06:24:40;;;;;;;9.03;7.13;;;0.50;99.90;;;;;;5052818;28;20171;-66
2022/03/01 06:27:06;;;;;;;15.85;7.30;;;0.50;99.90;;;;;;5050909;28;20397;-66
2022/03/01 06:29:32;;;;;;;12.67;8.10;;;0.50;99.90;;;;;;5032013;28;20187;-73
2022/03/01 06:31:57;;;;;;;13.80;7.35;;;0.50;99.90;;;;;;5032745;28;20912;-69
2022/03/01 06:34:23;;;;;;;15.73;7.80;;;0.50;99.90;;;;;;5052585;28;20225;-74
2022/03/01 06:36:49;;;;;;;16.97;8.70;;;0.60;99.90;;;;;;5051455;28;20412;-67
2022/03/01 06:39:15;;;;;;;14.40;8.10;;;0.60;99.90;;;;;;5032952;28;20966;-72
2022/03/01 06:41:40;;;;;;;20.63;8.60;;;0.50;99.90;;;;;;5032665;28;20541;-66
2022/03/01 06:44:06;;;;;;;11.33;7.63;;;0.60;99.90;;;;;;5048657;28;20430;-71
2022/03/01 06:46:32;;;;;;;16.90;7.30;;;0.50;99.90;;;;;;5052683;28;20221;-74
2022/03/01 06:48:58;;;;;;;10.17;7.33;;;0.60;99.90;;;;;;5036972;28;20683;-73
2022/03/01 06:51:24;;;;;;;16.88;8.90;;;0.60;99.90;;;;;;5031228;28;20568;-65
2022/03/01 06:53:50;;;;;;;8.47;6.23;;;0.50;99.90;;;;;;5033153;28;20188;-72
2022/03/01 06:56:16;;;;;;;10.23;7.68;;;0.60;99.90;;;;;;5032576;28;20398;-65
2022/03/01 06:58:41;;;;;;;11.10;8.83;;;0.60;99.90;;;;;;5032583;28;20588;-72
2022/03/01 07:01:07;;;;;;;18.40;9.57;;;0.50;99.90;;;;;;5032522;28;20679;-73
2022/03/01 07:03:34;;;;;;;14.17;8.43;;;0.50;99.90;;;;;;5045131;28;20183;-72
2022/03/01 07:06:00;;;;;;;11.65;7.97;;;0.60;99.90;;;;;;5052474;28;20159;-66
2022/03/01 07:08:26;;;;;;;14.05;7.40;;;0.50;99.90;;;;;;5040856;28;20176;-66
2022/03/01 07:10:52;;;;;;;6.90;6.23;;;0.60;99.90;;;;;;5031677;28;20548;-73
2022/03/01 07:13:18;;;;;;;10.50;7.38;;;0.60;99.90;;;;;;5036083;28;20178;-70
2022/03/01 07:15:44;;;;;;;11.60;7.97;;;0.60;99.90;;;;;;5035906;28;20169;-73
2022/03/01 07:18:09;;;;;;;12.73;8.37;;;0.70;99.90;;;;;;5036136;28;20457;-67
2022/03/01 07:20:35;;;;;;;15.83;7.10;;;0.70;99.90;;;;;;5035091;28;20167;-73
2022/03/01 07:23:02;;;;;;;12.93;8.03;;;0.70;99.90;;;;;;5045623;28;20217;-73
2022/03/01 07:25:27;;;;;;;8.57;5.85;;;0.70;99.90;;;;;;5055962;28;20409;-75
2022/03/01 07:27:54;;;;;;;8.30;7.47;;;0.70;99.90;;;;;;5047570;28;20566;-67
2022/03/01 07:30:22;;;;;;;18.42;8.60;;;0.70;99.90;;;;;;5034800;28;20218;-65
2022/03/01 07:32:48;;;;;;;16.50;9.27;;;0.80;99.90;;;;;;5041968;28;20195;-67
2022/03/01 07:35:15;;;;;;;12.27;8.27;;;0.80;99.90;;;;;;5054451;28;20528;-74
2022/03/01 07:37:41;;;;;;;12.55;7.85;;;0.90;99.90;;;;;;5050610;28;20454;-74
2022/03/01 07:40:10;;;;;;;12.13;7.50;;;0.90;99.90;;;;;;5034687;28;20175;-66
2022/03/01 07:42:36;;;;;;;16.65;7.70;;;0.90;99.90;;;;;;5038688;28;20191;-74
2022/03/01 07:45:03;;;;;;;10.00;7.17;;;1.00;99.90;;;;;;5055607;28;20632;-67
2022/03/01 07:47:29;;;;;;;11.50;8.75;;;1.10;99.90;;;;;;5055263;28;20986;-66
2022/03/01 07:49:54;;;;;;;11.50;7.10;;;1.20;99.90;;;;;;5054197;28;20266;-73
2022/03/01 07:52:20;;;;;;;15.40;9.67;;;1.30;99.90;;;;;;5055240;28;20421;-66
2022/03/01 07:54:47;;;;;;;12.90;8.07;;;1.40;99.90;;;;;;5054092;28;20178;-66
2022/03/01 07:57:13;;;;;;;11.77;8.40;;;1.50;99.90;;;;;;5055057;28;20167;-66
2022/03/01 07:59:38;;;;;;;16.60;8.40;;;1.60;99.90;;;;;;5054434;28;20174;-74
2022/03/01 08:02:04;;;;;;;11.13;6.10;;;1.60;99.90;;;;;;5055128;28;20187;-67
2022/03/01 08:04:30;;;;;;;13.73;7.70;;;1.80;99.90;;;;;;5055294;28;20171;-73
2022/03/01 08:06:55;;;;;;;10.40;7.03;;;1.90;99.90;;;;;;5054634;28;20181;-66
2022/03/01 08:09:27;;;;;;;12.00;6.70;;;1.90;99.90;;;;;;5053436;28;20575;-73
2022/03/01 08:11:54;;;;;;;14.40;8.00;;;2.00;99.90;;;;;;5054975;28;20226;-73
2022/03/01 08:14:20;;;;;;;13.47;8.03;;;2.10;99.90;;;;;;5054023;28;20432;-66
2022/03/01 08:16:45;;;;;;;14.80;7.97;;;2.20;99.90;;;;;;5035102;28;20167;-65
2022/03/01 08:19:11;;;;;;;22.10;9.87;;;2.20;99.90;;;;;;5034008;28;20548;-67
2022/03/01 08:21:37;;;;;;;11.47;7.60;;;2.20;99.90;;;;;;5053514;28;20245;-74
2022/03/01 08:24:02;;;;;;;12.13;7.03;;;2.30;99.90;;;;;;5054250;28;20293;-74
2022/03/01 08:26:28;;;;;;;15.63;7.73;;;2.30;99.90;;;;;;5052338;28;20175;-74
2022/03/01 08:28:54;;;;;;;15.40;9.50;;;2.40;99.90;;;;;;5053998;28;20182;-66
2022/03/01 08:31:19;;;;;;;15.70;7.63;;;2.50;99.90;;;;;;5050226;28;20624;-66
2022/03/01 08:33:46;;;;;;;10.33;7.10;;;2.50;99.90;;;;;;5054600;28;20186;-72
2022/03/01 08:36:13;;;;;;;15.17;8.80;;;2.70;99.90;;;;;;5053577;28;20647;-72
2022/03/01 08:38:39;;;;;;;14.43;8.80;;;2.70;99.90;;;;;;5053676;28;20502;-68
2022/03/01 08:41:05;;;;;;;11.83;8.23;;;2.90;99.90;;;;;;5038513;28;20437;-76
2022/03/01 08:43:30;;;;;;;15.73;9.13;;;3.00;99.90;;;;;;5034514;28;20903;-75
2022/03/01 08:45:56;;;;;;;25.20;8.73;;;3.00;99.90;;;;;;5047496;28;20171;-76
2022/03/01 08:48:22;;;;;;;19.80;9.20;;;3.10;99.90;;;;;;5054320;28;20179;-67
2022/03/01 08:50:47;;;;;;;16.50;9.63;;;3.30;99.90;;;;;;5041891;28;20211;-76
2022/03/01 08:53:14;;;;;;;19.77;9.50;;;3.40;99.90;;;;;;5033739;28;20411;-66
2022/03/01 08:55:40;;;;;;;24.27;10.03;;;3.60;99.90;;;;;;5043736;28;20182;-66
2022/03/01 08:58:06;;;;;;;15.27;8.60;;;3.80;99.90;;;;;;5053237;28;20435;-67
2022/03/01 09:00:32;;;;;;;18.77;10.33;;;4.10;99.90;;;;;;5044504;28;20552;-64
2022/03/01 09:02:58;;;;;;;19.60;10.27;;;4.30;99.90;;;;;;5034234;28;20696;-69
2022/03/01 09:05:25;;;;;;;15.20;9.27;;;4.40;99.90;;;;;;5036132;28;20509;-70
2022/03/01 09:07:50;;;;;;;13.00;8.50;;;4.50;99.90;;;;;;5043862;28;20415;-70
2022/03/01 09:10:21;;;;;;;17.17;8.83;;;4.70;99.90;;;;;;5033148;28;20411;-70
2022/03/01 09:12:54;;;;;;;14.10;9.43;;;4.50;99.90;;;;;;5036240;28;20563;-69
2022/03/01 09:15:21;;;;;;;20.17;8.53;;;4.40;99.90;;;;;;5053920;28;20409;-65
2022/03/01 09:17:47;;;;;;;16.87;10.17;;;4.40;99.90;;;;;;5053303;28;20449;-70
2022/03/01 09:20:13;;;;;;;15.60;8.37;;;4.50;99.90;;;;;;5052799;28;20404;-70
2022/03/01 09:22:39;;;;;;;13.43;9.60;;;4.70;99.90;;;;;;5053631;28;20419;-69
2022/03/01 09:25:05;;;;;;;11.20;7.97;;;4.80;99.90;;;;;;5053626;28;20764;-68
2022/03/01 09:27:31;;;;;;;15.00;8.50;;;4.90;99.90;;;;;;5053929;28;20426;-70
2022/03/01 09:29:56;;;;;;;13.20;8.33;;;5.10;99.90;;;;;;5052711;28;20398;-64
2022/03/01 09:32:22;;;;;;;14.80;8.87;;;5.20;99.90;;;;;;5052534;28;20789;-66
2022/03/01 09:34:48;;;;;;;17.10;8.07;;;5.00;99.90;;;;;;5053638;28;20173;-71
2022/03/01 09:37:14;;;;;;;14.07;9.50;;;4.90;99.90;;;;;;5053467;28;20523;-64
2022/03/01 09:39:40;;;;;;;17.23;9.97;;;4.90;99.90;;;;;;5051892;28;20453;-64
2022/03/01 09:42:07;;;;;;;12.10;8.33;;;4.90;99.90;;;;;;5053246;28;20244;-70
2022/03/01 09:44:33;;;;;;;16.00;8.97;;;4.80;99.90;;;;;;5053352;28;20357;-70
2022/03/01 09:46:58;;;;;;;18.30;10.50;;;4.70;99.90;;;;;;5053413;28;20398;-64
2022/03/01 09:49:24;;;;;;;13.17;9.00;;;4.80;99.90;;;;;;5052344;28;20408;-65
2022/03/01 09:51:50;;;;;;;17.73;9.30;;;4.60;99.90;;;;;;5053162;28;20232;-71
2022/03/01 09:54:16;;;;;;;17.80;10.10;;;4.50;99.90;;;;;;5053149;28;20603;-64
2022/03/01 09:56:42;;;;;;;16.30;9.40;;;4.50;99.90;;;;;;5037261;28;20434;-70
2022/03/01 09:59:08;;;;;;;11.93;8.40;;;4.60;99.90;;;;;;5032258;28;20215;-71
2022/03/01 10:01:34;;;;;;;19.27;9.37;;;4.60;99.90;;;;;;5046480;28;20446;-70
2022/03/01 10:04:11;;;;;;;11.60;8.73;;;4.60;99.90;;;;;;5053054;28;20167;-70
2022/03/01 10:06:43;;;;;;;15.47;9.93;;;4.70;99.90;;;;;;5036521;28;20179;-64
2022/03/01 10:09:26;;;;;;;13.90;9.63;;;4.50;99.90;;;;;;5042142;28;20833;-67
2022/03/01 10:11:53;;;;;;;18.50;10.13;;;4.60;99.90;;;;;;5045896;28;20848;-66
2022/03/01 10:14:33;;;;;;;16.93;10.53;;;4.60;99.90;;;;;;5045857;28;20427;-69
2022/03/01 10:16:59;;;;;;;17.90;9.23;;;4.70;99.90;;;;;;5032519;28;20421;-64
2022/03/01 10:19:25;;;;;;;14.33;8.90;;;4.90;99.90;;;;;;5041684;28;20449;-64
2022/03/01 10:22:00;;;;;;;14.10;8.87;;;5.30;99.90;;;;;;5051936;28;20460;-67
2022/03/01 10:24:25;;;;;;;15.20;9.70;;;5.80;99.90;;;;;;5042248;28;20167;-69
2022/03/01 10:27:01;;;;;;;17.07;8.67;;;6.10;99.90;;;;;;5037646;28;20452;-63
2022/03/01 10:29:28;;;;;;;13.10;8.23;;;6.10;99.90;;;;;;5039822;28;20433;-63
2022/03/01 10:31:59;;;;;;;16.00;10.83;;;6.10;99.90;;;;;;5051280;28;20439;-64
2022/03/01 10:34:27;;;;;;;16.00;11.20;;;6.20;99.90;;;;;;5043627;28;20933;-72
2022/03/01 10:36:53;;;;;;;18.70;10.53;;;7.00;99.90;;;;;;5040729;28;20794;-71
2022/03/01 10:39:29;;;;;;;16.83;10.70;;;7.20;99.90;;;;;;5049321;28;20772;-72
2022/03/01 10:41:54;;;;;;;17.27;10.10;;;7.00;99.90;;;;;;5046100;28;20445;-67
2022/03/01 10:44:28;;;;;;;14.47;9.23;;;7.20;99.90;;;;;;5052459;28;20408;-72
2022/03/01 10:46:57;;;;;;;16.13;11.30;;;7.40;99.90;;;;;;5034095;28;20214;-66
2022/03/01 10:49:28;;;;;;;17.30;11.87;;;7.40;99.90;;;;;;5033730;28;20445;-74
2022/03/01 10:51:58;;;;;;;16.90;9.57;;;7.10;99.90;;;;;;5051309;28;20969;-74
2022/03/01 10:54:35;;;;;;;18.50;10.33;;;6.70;99.90;;;;;;5050082;28;20482;-66
2022/03/01 10:57:04;;;;;;;19.30;9.93;;;6.60;99.90;;;;;;5056498;28;20459;-66
2022/03/01 10:59:32;;;;;;;17.37;9.80;;;6.80;99.90;;;;;;5044395;28;20468;-66
2022/03/01 11:01:58;;;;;;;17.97;10.03;;;7.20;99.90;;;;;;5035151;28;20977;-66
2022/03/01 11:04:25;;;;;;;14.47;11.00;;;7.50;99.90;;;;;;5046628;28;20417;-73
2022/03/01 11:07:03;;;;;;;13.90;9.93;;;7.70;99.90;;;;;;5055077;28;20821;-67
2022/03/01 11:09:31;;;;;;;12.27;8.90;;;7.80;99.90;;;;;;5044204;28;20468;-73
2022/03/01 11:11:58;;;;;;;17.40;9.43;;;7.90;99.90;;;;;;5036166;28;20496;-74
2022/03/01 11:14:34;;;;;;;17.47;9.87;;;7.80;99.90;;;;;;5045307;28;20543;-73
2022/03/01 11:17:22;;;;;;;13.77;10.03;;;7.60;99.90;;;;;;5054899;28;20747;-67
2022/03/01 11:20:08;;;;;;;14.97;10.07;;;7.50;99.90;;;;;;5042915;28;20426;-75
2022/03/01 11:22:51;;;;;;;20.80;10.50;;;7.40;99.90;;;;;;5037568;28;20430;-68
2022/03/01 11:25:20;;;;;;;22.80;10.50;;;7.20;99.90;;;;;;5055941;28;20393;-67
2022/03/01 11:27:48;;;;;;;21.13;11.57;;;7.10;99.90;;;;;;5052398;28;20516;-73
2022/03/01 11:30:15;;;;;;;16.87;11.30;;;7.10;99.90;;;;;;5035113;28;20473;-74
2022/03/01 11:32:43;;;;;;;18.50;10.60;;;7.00;99.90;;;;;;5037109;28;20468;-71
2022/03/01 11:35:20;;;;;;;20.13;9.43;;;7.00;99.90;;;;;;5055754;28;20476;-67
2022/03/01 11:37:57;;;;;;;17.20;10.50;;;6.90;99.90;;;;;;5053770;28;20444;-74
2022/03/01 11:40:24;;;;;;;15.30;10.63;;;6.90;99.90;;;;;;5034841;28;20432;-69
2022/03/01 11:42:50;;;;;;;18.37;10.10;;;7.00;99.90;;;;;;5037043;28;20911;-73
2022/03/01 11:45:17;;;;;;;24.30;12.40;;;7.10;99.90;;;;;;5055047;28;20393;-73
2022/03/01 11:47:43;;;;;;;16.80;11.17;;;7.10;99.90;;;;;;5055258;28;20440;-74
2022/03/01 11:50:19;;;;;;;13.83;9.47;;;7.30;99.90;;;;;;5034732;28;20464;-74
2022/03/01 11:53:07;;;;;;;12.73;10.20;;;7.30;99.90;;;;;;5050746;28;20469;-74
2022/03/01 11:55:49;;;;;;;17.43;10.23;;;7.40;99.90;;;;;;5055587;28;20410;-74
2022/03/01 11:58:17;;;;;;;12.30;9.80;;;7.40;99.90;;;;;;5053654;28;20507;-67
2022/03/01 12:00:43;;;;;;;23.63;11.50;;;7.40;99.90;;;;;;5052916;28;20485;-66
2022/03/01 12:03:14;;;;;;;15.93;9.50;;;7.40;99.90;;;;;;5036883;28;20501;-73
2022/03/01 12:05:41;;;;;;;17.47;10.83;;;7.40;99.90;;;;;;5035343;28;20413;-66
2022/03/01 12:08:09;;;;;;;21.17;11.30;;;7.30;99.90;;;;;;5051939;28;20453;-74
2022/03/01 12:10:35;;;;;;;20.80;10.40;;;7.20;99.90;;;;;;5054246;28;20394;-67
2022/03/01 12:13:08;;;;;;;16.10;10.60;;;7.20;99.90;;;;;;5053443;28;20767;-67
2022/03/01 12:15:40;;;;;;;14.57;10.30;;;7.20;99.90;;;;;;5055088;28;20406;-67
2022/03/01 12:18:16;;;;;;;15.30;10.83;;;7.10;99.90;;;;;;5037033;28;20471;-67
2022/03/01 12:20:47;;;;;;;18.93;11.13;;;7.10;99.90;;;;;;5033609;28;20399;-73
2022/03/01 12:23:28;;;;;;;17.30;9.60;;;7.20;99.90;;;;;;5052767;28;20479;-74
2022/03/01 12:25:55;;;;;;;25.30;11.70;;;7.20;99.90;;;;;;5054761;28;20402;-74
2022/03/01 12:28:22;;;;;;;22.37;12.30;;;7.20;99.90;;;;;;5034913;28;20454;-73
2022/03/01 12:30:48;;;;;;;17.83;9.33;;;7.10;99.90;;;;;;5034047;28;20423;-71
2022/03/01 12:33:17;;;;;;;20.57;10.80;;;7.10;99.90;;;;;;5050653;28;20420;-75
2022/03/01 12:35:54;;;;;;;17.70;9.60;;;7.10;99.90;;;;;;5054722;28;20889;-70
2022/03/01 12:38:19;;;;;;;19.60;10.87;;;7.10;99.90;;;;;;5037125;28;20552;-67
2022/03/01 12:40:45;;;;;;;18.33;11.03;;;7.10;99.90;;;;;;5033132;28;20489;-73
2022/03/01 12:43:12;;;;;;;20.00;11.13;;;7.00;99.90;;;;;;5049945;28;20168;-74
2022/03/01 12:45:42;;;;;;;20.97;11.87;;;6.90;99.90;;;;;;5054558;28;20413;-68
2022/03/01 12:48:12;;;;;;;17.67;10.20;;;6.90;99.90;;;;;;5039637;28;20510;-68